Terminal Aerodrome Forecast
Issued by NWS

Home | Current Version | Previous Version | Text Only | Print | Product List | Glossary Off
Versions: 1 2 3 4 5 6 7 8 9 10 11 12 13 14 15 16 17 18 19 20 21 22 23

000
FTUS42 KMHX 190200 AAC
TAFISO
TAF AMD
KISO 190221Z 1902/1924 12006KT P6SM SCT040 SCT050
      TEMPO 1902/1905 2SM TSRA BKN030CB
     FM190500 21005KT P6SM SCT030
     FM190800 23003KT 4SM BR SCT040
     FM191300 26007KT P6SM SCT040
     FM191900 27008KT P6SM BKN040
      AMD LTD TO CLD VIS AND WIND=

USA.gov is the U.S. government's official web portal to all federal, state and local government web resources and services.